createdAt,value
2019-05-30T00:00:37.120Z,7.01
2019-05-30T00:06:33.922Z,6.88
2019-05-30T00:09:20.905Z,6.81
2019-05-30T00:12:07.935Z,6.77
2019-05-30T00:21:08.565Z,6.63
2019-05-30T00:23:57.818Z,6.61
2019-05-30T00:29:50.577Z,6.59
2019-05-30T00:32:37.773Z,6.57
2019-05-30T00:35:32.112Z,6.52
2019-05-30T00:38:19.734Z,6.46
2019-05-30T00:41:07.180Z,6.44
2019-05-30T00:44:08.323Z,6.41
2019-05-30T00:50:09.674Z,6.18
2019-05-30T00:52:58.926Z,6.14
2019-05-30T00:55:53.212Z,6.84
2019-05-30T01:02:02.793Z,6.24
2019-05-30T01:14:07.777Z,5.98
2019-05-30T01:20:01.461Z,5.91
2019-05-30T01:22:48.222Z,5.93
2019-05-30T01:25:50.039Z,5.90
2019-05-30T01:31:57.635Z,6.08
2019-05-30T01:34:48.445Z,5.96
2019-05-30T01:40:41.401Z,6.05
2019-05-30T01:55:53.924Z,5.81
2019-05-30T02:04:56.849Z,5.63
2019-05-30T02:20:23.879Z,5.20
2019-05-30T02:23:25.250Z,5.89
2019-05-30T02:26:19.966Z,5.32
2019-05-30T02:32:13.127Z,5.12
2019-05-30T02:38:07.365Z,5.02
2019-05-30T02:40:53.920Z,4.99
2019-05-30T02:46:49.229Z,4.91
2019-05-30T02:58:54.218Z,4.93
2019-05-30T03:02:00.897Z,4.99
2019-05-30T03:04:42.881Z,5.03
2019-05-30T03:07:29.919Z,5.03
2019-05-30T03:13:22.534Z,5.00
2019-05-30T03:16:11.797Z,5.01
2019-05-30T03:19:01.807Z,5.01
2019-05-30T03:21:48.160Z,5.01
2019-05-30T03:24:35.255Z,5.01
2019-05-30T03:30:29.803Z,5.05
2019-05-30T03:33:36.373Z,5.08
2019-05-30T03:36:13.475Z,5.14
2019-05-30T03:38:55.445Z,5.89
2019-05-30T03:41:50.333Z,6.17
2019-05-30T03:44:37.582Z,6.37
2019-05-30T03:47:25.630Z,5.86
2019-05-30T03:50:16.507Z,5.83
2019-05-30T03:59:25.051Z,5.99
2019-05-30T04:02:24.958Z,6.05
2019-05-30T04:08:27.695Z,6.21
2019-05-30T04:11:16.818Z,6.29
2019-05-30T04:14:03.418Z,7.05
2019-05-30T04:16:51.629Z,6.70
2019-05-30T04:19:40.007Z,7.43
2019-05-30T04:22:27.908Z,7.08
2019-05-30T04:25:16.730Z,7.10
2019-05-30T04:31:24.812Z,7.50
2019-05-30T04:37:19.085Z,7.56
2019-05-30T04:40:05.692Z,7.62
2019-05-30T04:42:52.902Z,7.70
2019-05-30T04:45:40.827Z,7.77
2019-05-30T04:48:29.877Z,7.88
2019-05-30T04:51:19.604Z,7.99
2019-05-30T04:57:27.011Z,8.27
2019-05-30T05:00:12.927Z,8.43
2019-05-30T05:03:00.880Z,9.26
2019-05-30T05:05:55.186Z,9.00
2019-05-30T05:08:44.389Z,9.76
2019-05-30T05:11:34.794Z,9.45
2019-05-30T05:14:28.789Z,9.48
2019-05-30T05:17:16.923Z,9.59
2019-05-30T05:20:06.403Z,9.71
2019-05-30T05:22:55.256Z,9.85
2019-05-30T05:31:55.192Z,10.27
2019-05-30T05:34:43.127Z,10.43
2019-05-30T05:37:31.277Z,10.58
2019-05-30T05:40:18.423Z,10.75
2019-05-30T05:43:06.194Z,10.93
2019-05-30T05:46:11.070Z,11.82
2019-05-30T05:49:00.232Z,11.60
2019-05-30T05:51:46.939Z,11.73
2019-05-30T05:54:34.351Z,11.90
2019-05-30T05:57:22.947Z,12.09
2019-05-30T06:00:09.396Z,12.29
2019-05-30T06:02:56.827Z,12.50
2019-05-30T06:05:52.527Z,12.71
2019-05-30T06:08:30.751Z,13.56
2019-05-30T06:11:18.643Z,13.31
2019-05-30T06:14:05.177Z,14.12
2019-05-30T06:16:55.752Z,13.87
2019-05-30T06:19:46.350Z,13.99
2019-05-30T06:22:28.779Z,14.19
2019-05-30T06:28:37.222Z,14.62
2019-05-30T06:31:24.509Z,14.79
2019-05-30T06:34:27.918Z,14.92
2019-05-30T06:36:58.991Z,15.08
2019-05-30T06:42:32.242Z,15.46
2019-05-30T06:48:26.797Z,15.86
2019-05-30T06:51:14.715Z,16.02
2019-05-30T06:54:01.124Z,16.12
2019-05-30T06:56:49.262Z,16.21
2019-05-30T06:59:36.881Z,16.40
2019-05-30T07:05:32.084Z,16.85
2019-05-30T07:08:16.968Z,17.06
2019-05-30T07:11:03.910Z,17.30
2019-05-30T07:13:51.511Z,18.40
2019-05-30T07:22:58.120Z,18.50
2019-05-30T07:25:45.415Z,19.48
2019-05-30T07:28:32.308Z,19.03
2019-05-30T07:31:20.043Z,19.09
2019-05-30T07:34:07.786Z,20.11
2019-05-30T07:36:54.584Z,19.59
2019-05-30T07:39:41.719Z,19.59
2019-05-30T07:42:30.735Z,19.69
2019-05-30T07:45:17.673Z,19.79
2019-05-30T07:48:05.255Z,19.80
2019-05-30T07:50:52.152Z,19.89
2019-05-30T07:53:39.575Z,20.00
2019-05-30T07:56:26.973Z,20.12
2019-05-30T07:59:14.709Z,20.20
2019-05-30T08:02:09.920Z,20.32
2019-05-30T08:04:56.556Z,20.44
2019-05-30T08:07:43.557Z,21.64
2019-05-30T08:10:31.918Z,21.04
2019-05-30T08:13:17.264Z,20.99
2019-05-30T08:16:04.567Z,20.99
2019-05-30T08:18:52.707Z,22.16
2019-05-30T08:21:45.656Z,21.53
2019-05-30T08:24:34.399Z,21.50
2019-05-30T08:27:20.011Z,21.58
2019-05-30T08:30:06.783Z,21.70
2019-05-30T08:32:54.100Z,21.78
2019-05-30T08:35:55.833Z,21.90
2019-05-30T08:38:43.840Z,22.00
2019-05-30T08:41:35.285Z,21.90
2019-05-30T08:44:22.885Z,21.93
2019-05-30T08:47:09.609Z,22.02
2019-05-30T08:49:57.200Z,22.12
2019-05-30T08:52:44.929Z,22.22
2019-05-30T08:55:32.442Z,23.42
2019-05-30T09:04:35.747Z,22.89
2019-05-30T09:07:22.122Z,22.76
2019-05-30T09:10:09.410Z,22.73
2019-05-30T09:12:59.447Z,22.84
2019-05-30T09:15:47.067Z,23.02
2019-05-30T09:21:41.513Z,23.61
2019-05-30T09:24:28.875Z,23.63
2019-05-30T09:27:16.464Z,23.63
2019-05-30T09:30:03.235Z,23.71
2019-05-30T09:32:51.296Z,23.86
2019-05-30T09:35:52.445Z,23.91
2019-05-30T09:38:40.550Z,23.87
2019-05-30T09:41:25.968Z,23.93
2019-05-30T09:44:13.420Z,24.09
2019-05-30T09:47:01.546Z,24.21
2019-05-30T09:49:48.662Z,24.35
2019-05-30T09:52:35.986Z,24.42
2019-05-30T09:55:22.919Z,24.43
2019-05-30T09:58:09.924Z,24.34
2019-05-30T10:00:57.347Z,24.45
2019-05-30T10:03:45.188Z,24.53
2019-05-30T10:06:31.883Z,24.67
2019-05-30T10:09:18.577Z,24.86
2019-05-30T10:12:05.687Z,25.04
2019-05-30T10:14:53.049Z,25.18
2019-05-30T10:17:39.538Z,25.13
2019-05-30T10:20:27.156Z,25.07
2019-05-30T10:26:20.425Z,25.17
2019-05-30T10:29:14.510Z,25.11
2019-05-30T10:32:15.371Z,25.18
2019-05-30T10:35:02.665Z,25.27
2019-05-30T10:37:50.897Z,25.42
2019-05-30T10:40:37.937Z,25.60
2019-05-30T10:43:26.034Z,25.65
2019-05-30T10:46:13.184Z,25.84
2019-05-30T10:49:00.813Z,27.18
2019-05-30T10:51:55.765Z,26.13
2019-05-30T10:54:39.150Z,25.56
2019-05-30T10:57:33.440Z,25.60
2019-05-30T11:00:21.938Z,25.84
2019-05-30T11:03:08.880Z,26.01
2019-05-30T11:06:21.268Z,26.16
2019-05-30T11:09:08.486Z,27.54
2019-05-30T11:12:01.730Z,26.70
2019-05-30T11:17:58.073Z,26.88
2019-05-30T11:20:45.637Z,26.96
2019-05-30T11:23:33.840Z,27.14
2019-05-30T11:26:35.565Z,27.29
2019-05-30T11:35:35.526Z,27.01
2019-05-30T11:38:23.095Z,27.48
2019-05-30T11:41:10.989Z,27.41
2019-05-30T11:43:59.664Z,27.06
2019-05-30T11:46:45.711Z,26.80
2019-05-30T11:49:33.484Z,28.47
2019-05-30T11:52:20.500Z,27.70
2019-05-30T11:55:07.753Z,29.28
2019-05-30T11:57:56.265Z,28.52
2019-05-30T12:00:50.219Z,28.48
2019-05-30T12:03:37.566Z,28.39
2019-05-30T12:06:24.281Z,28.07
2019-05-30T12:09:14.538Z,27.75
2019-05-30T12:11:59.224Z,27.54
2019-05-30T12:14:46.322Z,27.47
2019-05-30T12:17:34.155Z,27.47
2019-05-30T12:20:35.241Z,28.94
2019-05-30T12:23:22.822Z,27.97
2019-05-30T12:26:09.957Z,28.00
2019-05-30T12:28:58.085Z,29.57
2019-05-30T12:32:00.669Z,28.70
2019-05-30T12:34:46.441Z,29.83
2019-05-30T12:37:54.160Z,28.52
2019-05-30T12:40:35.874Z,29.43
2019-05-30T12:43:23.035Z,28.53
2019-05-30T12:46:09.786Z,28.62
2019-05-30T12:48:59.340Z,28.44
2019-05-30T12:51:45.250Z,28.15
2019-05-30T12:54:32.941Z,28.03
2019-05-30T12:57:20.002Z,28.02
2019-05-30T13:00:15.404Z,27.76
2019-05-30T13:02:58.817Z,27.75
2019-05-30T13:05:45.505Z,27.73
2019-05-30T13:08:32.896Z,27.70
2019-05-30T13:11:20.325Z,29.48
2019-05-30T13:14:07.382Z,29.00
2019-05-30T13:16:55.532Z,29.44
2019-05-30T13:19:42.525Z,29.55
2019-05-30T13:25:43.286Z,29.19
2019-05-30T13:28:30.402Z,28.87
2019-05-30T13:31:17.421Z,28.94
2019-05-30T13:34:05.001Z,30.87
2019-05-30T13:36:52.962Z,31.39
2019-05-30T13:45:54.744Z,29.08
2019-05-30T13:48:41.908Z,29.00
2019-05-30T13:51:29.907Z,28.79
2019-05-30T13:54:31.154Z,28.74
2019-05-30T13:57:18.579Z,28.63
2019-05-30T14:00:12.854Z,28.61
2019-05-30T14:06:06.851Z,28.36
2019-05-30T14:08:53.738Z,28.41
2019-05-30T14:14:47.128Z,28.93
2019-05-30T14:17:49.185Z,29.22
2019-05-30T14:20:50.531Z,29.28
2019-05-30T14:23:37.726Z,29.40
2019-05-30T14:26:26.176Z,29.48
2019-05-30T14:29:13.645Z,29.52
2019-05-30T14:32:02.277Z,29.68
2019-05-30T14:34:49.470Z,29.82
2019-05-30T14:37:36.590Z,29.86
2019-05-30T14:40:23.708Z,29.55
2019-05-30T14:43:13.501Z,30.71
2019-05-30T14:46:00.194Z,29.31
2019-05-30T14:48:47.227Z,28.76
2019-05-30T14:57:59.961Z,28.36
2019-05-30T15:00:48.089Z,28.52
2019-05-30T15:03:42.107Z,28.62
2019-05-30T15:06:29.908Z,28.41
2019-05-30T15:09:25.756Z,28.10
2019-05-30T15:12:04.489Z,29.31
2019-05-30T15:14:52.054Z,29.40
2019-05-30T15:17:39.682Z,27.95
2019-05-30T15:20:26.746Z,27.33
2019-05-30T15:23:13.806Z,27.03
2019-05-30T15:26:00.331Z,26.86
2019-05-30T15:28:47.153Z,28.08
2019-05-30T15:31:35.161Z,28.23
2019-05-30T15:34:22.892Z,27.21
2019-05-30T15:37:10.669Z,26.84
2019-05-30T15:39:57.375Z,26.60
2019-05-30T15:42:45.189Z,26.43
2019-05-30T15:45:33.112Z,26.24
2019-05-30T15:48:34.573Z,26.08
2019-05-30T15:57:37.701Z,25.46
2019-05-30T16:00:28.253Z,26.62
2019-05-30T16:03:29.650Z,25.42
2019-05-30T16:09:22.392Z,25.10
2019-05-30T16:12:10.942Z,26.17
2019-05-30T16:14:56.472Z,25.24
2019-05-30T16:20:49.838Z,24.98
2019-05-30T16:23:37.410Z,25.41
2019-05-30T16:26:25.966Z,25.78
2019-05-30T16:29:11.336Z,25.88
2019-05-30T16:31:59.465Z,25.83
2019-05-30T16:37:53.167Z,25.22
2019-05-30T16:40:40.312Z,25.03
2019-05-30T16:43:27.587Z,24.80
2019-05-30T16:46:14.405Z,24.51
2019-05-30T16:49:01.179Z,24.31
2019-05-30T16:51:48.460Z,24.11
2019-05-30T16:54:50.125Z,23.96
2019-05-30T16:57:37.624Z,23.83
2019-05-30T17:00:24.536Z,23.76
2019-05-30T17:03:12.760Z,23.76
2019-05-30T17:05:59.979Z,23.70
2019-05-30T17:08:47.121Z,23.67
2019-05-30T17:11:34.551Z,23.62
2019-05-30T17:14:21.897Z,23.51
2019-05-30T17:17:09.700Z,23.40
2019-05-30T17:20:11.764Z,23.31
2019-05-30T17:22:58.866Z,23.26
2019-05-30T17:26:00.306Z,23.16
2019-05-30T17:28:47.639Z,23.03
2019-05-30T17:31:48.913Z,22.95
2019-05-30T17:34:36.714Z,22.86
2019-05-30T17:37:38.653Z,22.71
2019-05-30T17:40:41.116Z,22.64
2019-05-30T17:43:12.885Z,22.59
2019-05-30T17:45:59.796Z,22.47
2019-05-30T17:48:46.744Z,22.37
2019-05-30T17:51:33.394Z,22.30
2019-05-30T17:54:21.778Z,22.21
2019-05-30T17:57:08.902Z,22.12
2019-05-30T17:59:56.120Z,22.04
2019-05-30T18:02:43.190Z,21.98
2019-05-30T18:05:30.948Z,21.92
2019-05-30T18:08:31.379Z,21.84
2019-05-30T18:11:22.839Z,21.73
2019-05-30T18:14:08.524Z,21.68
2019-05-30T18:16:55.669Z,21.58
2019-05-30T18:19:45.517Z,21.52
2019-05-30T18:25:41.300Z,21.61
2019-05-30T18:28:28.489Z,21.42
2019-05-30T18:31:15.745Z,21.24
2019-05-30T18:34:03.099Z,21.09
2019-05-30T18:36:50.186Z,20.98
2019-05-30T18:39:37.038Z,20.82
2019-05-30T18:42:38.410Z,20.71
2019-05-30T18:45:35.175Z,20.63
2019-05-30T18:48:23.305Z,20.51
2019-05-30T18:51:10.164Z,21.19
2019-05-30T18:53:57.247Z,20.63
2019-05-30T18:56:51.991Z,20.44
2019-05-30T18:59:38.792Z,21.12
2019-05-30T19:02:27.065Z,20.55
2019-05-30T19:05:13.105Z,20.39
2019-05-30T19:08:00.637Z,20.28
2019-05-30T19:10:48.683Z,20.16
2019-05-30T19:13:37.269Z,20.06
2019-05-30T19:16:23.393Z,19.94
2019-05-30T19:19:11.637Z,20.59
2019-05-30T19:21:58.908Z,19.95
2019-05-30T19:24:46.515Z,20.55
2019-05-30T19:27:35.434Z,19.89
2019-05-30T19:33:41.251Z,20.31
2019-05-30T19:36:29.040Z,19.61
2019-05-30T19:39:16.009Z,20.20
2019-05-30T19:42:04.006Z,19.53
2019-05-30T19:44:51.973Z,20.10
2019-05-30T19:47:38.931Z,19.41
2019-05-30T19:50:26.570Z,19.23
2019-05-30T19:53:13.677Z,19.13
2019-05-30T19:56:01.215Z,19.03
2019-05-30T19:58:55.185Z,19.73
2019-05-30T20:01:43.531Z,19.88
2019-05-30T20:04:38.313Z,19.22
2019-05-30T20:10:37.288Z,18.92
2019-05-30T20:13:23.933Z,18.85
2019-05-30T20:16:10.869Z,19.59
2019-05-30T20:18:58.185Z,18.99
2019-05-30T20:21:45.921Z,18.85
2019-05-30T20:24:34.063Z,18.76
2019-05-30T20:27:20.059Z,18.69
2019-05-30T20:30:06.754Z,18.64
2019-05-30T20:33:00.690Z,18.59
2019-05-30T20:35:47.558Z,18.52
2019-05-30T20:38:34.559Z,18.48
2019-05-30T20:41:22.367Z,19.24
2019-05-30T20:44:09.823Z,19.44
2019-05-30T20:47:03.787Z,18.85
2019-05-30T20:49:52.230Z,18.71
2019-05-30T20:52:41.852Z,18.64
2019-05-30T20:55:26.291Z,18.55
2019-05-30T20:58:16.840Z,18.47
2019-05-30T21:01:04.675Z,18.39
2019-05-30T21:03:52.628Z,18.33
2019-05-30T21:06:41.430Z,19.04
2019-05-30T21:12:37.746Z,18.35
2019-05-30T21:12:39.390Z,18.49
2019-05-30T21:15:15.636Z,19.05
2019-05-30T21:21:11.057Z,18.27
2019-05-30T21:23:58.395Z,18.17
2019-05-30T21:26:46.975Z,18.82
2019-05-30T21:29:33.841Z,18.20
2019-05-30T21:35:28.177Z,17.87
2019-05-30T21:38:15.130Z,17.76
2019-05-30T21:41:02.859Z,17.64
2019-05-30T21:43:50.225Z,17.56
2019-05-30T21:46:38.601Z,17.46
2019-05-30T21:49:26.058Z,17.40
2019-05-30T21:52:13.177Z,17.33
2019-05-30T21:55:07.492Z,17.31
2019-05-30T21:57:55.287Z,17.28
2019-05-30T22:00:46.496Z,18.04
2019-05-30T22:03:32.007Z,18.23
2019-05-30T22:06:19.712Z,17.63
2019-05-30T22:09:06.828Z,17.48
2019-05-30T22:11:55.811Z,18.21
2019-05-30T22:14:43.710Z,17.63
2019-05-30T22:17:30.024Z,17.51
2019-05-30T22:20:17.648Z,18.23
2019-05-30T22:26:25.264Z,17.52
2019-05-30T22:29:19.939Z,17.45
2019-05-30T22:32:07.873Z,17.39
2019-05-30T22:35:02.088Z,17.37
2019-05-30T22:38:05.176Z,17.35
2019-05-30T22:40:54.439Z,17.33
2019-05-30T22:56:19.130Z,17.26
2019-05-30T22:59:06.606Z,17.26
2019-05-30T23:01:54.808Z,17.28
2019-05-30T23:04:43.075Z,18.03
2019-05-30T23:07:30.395Z,17.53
2019-05-30T23:10:24.999Z,17.45
2019-05-30T23:13:39.673Z,17.41
2019-05-30T23:16:13.850Z,17.38
2019-05-30T23:19:01.747Z,18.12
2019-05-30T23:21:55.872Z,18.33
2019-05-30T23:24:52.310Z,17.75
2019-05-30T23:33:52.288Z,17.75
2019-05-30T23:36:38.540Z,17.63
2019-05-30T23:39:40.257Z,17.53
2019-05-30T23:42:34.848Z,17.42
2019-05-30T23:45:21.914Z,17.28
2019-05-30T23:48:09.641Z,17.89
2019-05-30T23:54:04.729Z,17.05
2019-05-30T23:56:54.707Z,16.91
2019-05-30T23:59:40.691Z,16.78
